createdAt,value
2023-02-15T00:00:11.695Z,11.20
2023-02-15T00:02:39.759Z,10.80
2023-02-15T00:05:08.628Z,12.55
2023-02-15T00:07:36.696Z,12.15
2023-02-15T00:10:04.851Z,11.48
2023-02-15T00:12:33.992Z,12.70
2023-02-15T00:15:01.714Z,14.05
2023-02-15T00:17:30.402Z,13.65
2023-02-15T00:19:58.149Z,12.77
2023-02-15T00:22:25.967Z,12.48
2023-02-15T00:24:53.716Z,15.23
2023-02-15T00:27:21.513Z,13.35
2023-02-15T00:29:50.638Z,12.00
2023-02-15T00:32:18.452Z,13.88
2023-02-15T00:34:46.166Z,12.93
2023-02-15T00:37:14.039Z,13.20
2023-02-15T00:39:41.802Z,14.57
2023-02-15T00:42:09.740Z,14.40
2023-02-15T00:44:37.738Z,12.30
2023-02-15T00:47:07.193Z,13.27
2023-02-15T03:42:18.202Z,10.25
2023-02-15T03:44:54.251Z,11.32
2023-02-15T03:47:27.418Z,10.35
2023-02-15T03:50:00.101Z,10.15
2023-02-15T03:54:56.831Z,9.90
2023-02-15T03:57:44.587Z,10.23
2023-02-15T04:00:36.267Z,10.82
2023-02-15T04:03:24.911Z,11.32
2023-02-15T04:05:52.989Z,9.75
2023-02-15T04:08:20.909Z,10.82
2023-02-15T04:10:53.513Z,10.40
2023-02-15T04:16:05.313Z,10.30
2023-02-15T04:18:54.414Z,10.60
2023-02-15T04:21:41.165Z,10.75
2023-02-15T04:24:27.528Z,9.90
2023-02-15T04:26:55.792Z,11.43
2023-02-15T04:29:24.543Z,10.55
2023-02-15T04:31:56.860Z,10.73
2023-02-15T04:34:24.864Z,10.63
2023-02-15T04:36:53.081Z,11.57
2023-02-15T04:39:21.332Z,11.13
2023-02-15T04:41:49.043Z,10.85
2023-02-15T04:44:17.339Z,10.13
2023-02-15T04:46:45.111Z,10.13
2023-02-15T04:49:14.556Z,10.63
2023-02-15T04:51:42.436Z,10.70
2023-02-15T04:54:10.213Z,10.70
2023-02-15T04:56:39.883Z,10.07
2023-02-15T04:59:08.046Z,11.52
2023-02-15T05:01:35.777Z,11.70
2023-02-15T05:04:03.660Z,10.35
2023-02-15T05:06:32.900Z,11.00
2023-02-15T05:09:00.818Z,11.00
2023-02-15T05:11:28.755Z,10.57
2023-02-15T05:13:56.670Z,10.07
2023-02-15T05:16:24.526Z,10.60
2023-02-15T05:18:52.392Z,11.80
2023-02-15T05:21:20.146Z,12.13
2023-02-15T05:23:49.437Z,10.25
2023-02-15T05:26:40.634Z,11.10
2023-02-15T05:29:08.810Z,10.20
2023-02-15T05:31:37.317Z,10.45
2023-02-15T05:34:05.660Z,11.23
2023-02-15T05:36:33.572Z,11.02
2023-02-15T05:39:04.954Z,11.50
2023-02-15T05:41:32.765Z,11.43
2023-02-15T05:44:00.522Z,10.82
2023-02-15T05:46:28.515Z,10.82
2023-02-15T05:48:56.364Z,10.95
2023-02-15T05:51:24.206Z,11.35
2023-02-15T05:53:51.925Z,10.60
2023-02-15T05:56:21.189Z,11.45
2023-02-15T05:58:48.946Z,10.57
2023-02-15T06:01:19.141Z,10.38
2023-02-15T06:03:47.691Z,10.70
2023-02-15T06:06:15.662Z,11.35
2023-02-15T06:08:43.794Z,10.90
2023-02-15T06:11:11.779Z,11.77
2023-02-15T06:13:40.857Z,11.63
2023-02-15T06:16:08.961Z,13.20
2023-02-15T06:18:36.865Z,12.75
2023-02-15T06:21:04.812Z,14.75
2023-02-15T06:23:32.835Z,16.13
2023-02-15T06:26:00.864Z,14.50
2023-02-15T06:28:28.991Z,11.60
2023-02-15T06:30:58.514Z,12.90
2023-02-15T06:33:26.420Z,12.30
2023-02-15T06:35:54.195Z,13.10
2023-02-15T06:38:22.021Z,12.38
2023-02-15T06:40:49.834Z,12.73
2023-02-15T06:43:17.677Z,13.20
2023-02-15T06:45:45.439Z,11.90
2023-02-15T06:48:14.577Z,11.68
2023-02-15T06:50:42.471Z,10.80
2023-02-15T06:53:10.165Z,12.10
2023-02-15T06:55:38.152Z,11.07
2023-02-15T06:58:05.858Z,12.23
2023-02-15T07:00:33.825Z,11.18
2023-02-15T07:03:03.302Z,10.98
2023-02-15T07:05:35.433Z,9.93
2023-02-15T07:08:03.418Z,10.57
2023-02-15T07:10:31.273Z,10.80
2023-02-15T07:12:58.109Z,9.85
2023-02-15T07:15:25.967Z,10.32
2023-02-15T07:17:53.734Z,11.85
2023-02-15T07:20:23.411Z,9.45
2023-02-15T07:22:53.225Z,9.10
2023-02-15T07:25:21.216Z,10.18
2023-02-15T07:27:49.020Z,9.75
2023-02-15T07:30:18.822Z,9.93
2023-02-15T07:33:10.287Z,10.60
2023-02-15T07:35:38.165Z,9.20
2023-02-15T07:38:07.265Z,9.82
2023-02-15T07:40:35.024Z,9.43
2023-02-15T07:43:02.877Z,9.20
2023-02-15T07:45:30.730Z,8.68
2023-02-15T07:47:58.503Z,9.55
2023-02-15T07:50:26.336Z,8.77
2023-02-15T07:52:54.422Z,9.27
2023-02-15T07:55:23.660Z,9.23
2023-02-15T07:57:54.841Z,9.77
2023-02-15T08:00:26.133Z,9.18
2023-02-15T08:03:09.805Z,8.70
2023-02-15T08:05:38.287Z,8.93
2023-02-15T08:08:06.532Z,9.30
2023-02-15T08:10:54.712Z,9.65
2023-02-15T08:13:22.442Z,8.18
2023-02-15T08:15:51.186Z,8.32
2023-02-15T08:18:19.119Z,8.85
2023-02-15T08:20:51.690Z,8.13
2023-02-15T08:26:14.352Z,9.60
2023-02-15T08:28:43.218Z,9.18
2023-02-15T08:31:13.214Z,7.60
2023-02-15T08:33:42.710Z,8.93
2023-02-15T08:36:12.737Z,8.63
2023-02-15T08:38:40.870Z,8.95
2023-02-15T08:41:19.843Z,9.15
2023-02-15T08:43:48.994Z,7.47
2023-02-15T08:46:18.162Z,8.50
2023-02-15T08:48:46.212Z,8.15
2023-02-15T08:51:17.374Z,8.70
2023-02-15T08:53:49.943Z,8.30
2023-02-15T08:58:48.079Z,8.90
2023-02-15T09:01:19.067Z,8.00
2023-02-15T09:03:47.833Z,9.15
2023-02-15T09:06:16.018Z,9.05
2023-02-15T09:08:43.801Z,7.85
2023-02-15T09:11:12.991Z,9.88
2023-02-15T09:13:42.167Z,9.68
2023-02-15T09:16:11.739Z,8.68
2023-02-15T09:18:40.730Z,9.07
2023-02-15T09:21:10.368Z,9.40
2023-02-15T09:23:38.264Z,9.18
2023-02-15T09:26:09.118Z,9.30
2023-02-15T09:28:37.211Z,9.50
2023-02-15T09:31:12.527Z,9.55
2023-02-15T09:33:41.451Z,8.68
2023-02-15T09:36:17.794Z,9.27
2023-02-15T09:38:46.175Z,8.82
2023-02-15T09:41:39.516Z,9.20
2023-02-15T09:44:19.116Z,9.07
2023-02-15T09:47:11.974Z,8.30
2023-02-15T09:49:51.035Z,9.30
2023-02-15T09:52:37.552Z,8.18
2023-02-15T09:55:22.953Z,9.13
2023-02-15T09:57:58.900Z,8.35
2023-02-15T10:00:38.601Z,8.52
2023-02-15T10:03:23.399Z,8.05
2023-02-15T10:06:05.808Z,9.07
2023-02-15T10:08:55.504Z,7.90
2023-02-15T10:11:42.455Z,8.77
2023-02-15T10:14:45.009Z,8.00
2023-02-15T10:17:27.818Z,8.95
2023-02-15T10:20:13.205Z,8.32
2023-02-15T10:22:52.259Z,8.82
2023-02-15T10:25:35.010Z,8.77
2023-02-15T10:28:07.796Z,6.80
2023-02-15T10:30:45.087Z,8.05
2023-02-15T10:33:28.473Z,8.55
2023-02-15T10:36:06.768Z,8.02
2023-02-15T10:38:42.925Z,7.38
2023-02-15T10:41:24.775Z,8.70
2023-02-15T10:44:09.990Z,7.50
2023-02-15T10:47:04.568Z,8.85
2023-02-15T10:49:48.257Z,8.00
2023-02-15T10:52:28.686Z,8.20
2023-02-15T10:55:09.871Z,7.07
2023-02-15T10:57:51.275Z,8.13
2023-02-15T11:00:25.069Z,8.52
2023-02-15T11:03:13.680Z,8.10
2023-02-15T11:05:50.011Z,8.20
2023-02-15T11:08:20.191Z,8.60
2023-02-15T11:10:52.792Z,8.45
2023-02-15T11:13:22.792Z,8.65
2023-02-15T11:15:55.426Z,8.90
2023-02-15T11:18:28.387Z,8.00
2023-02-15T11:21:01.656Z,7.80
2023-02-15T11:23:32.191Z,8.82
2023-02-15T11:26:02.353Z,8.15
2023-02-15T11:28:35.121Z,7.78
2023-02-15T11:31:12.865Z,8.23
2023-02-15T11:33:45.752Z,8.15
2023-02-15T11:36:18.742Z,8.48
2023-02-15T11:38:51.046Z,7.65
2023-02-15T11:41:22.324Z,8.18
2023-02-15T11:43:56.502Z,8.52
2023-02-15T11:46:24.767Z,8.38
2023-02-15T11:48:52.747Z,7.68
2023-02-15T11:51:24.384Z,8.32
2023-02-15T11:53:53.998Z,8.63
2023-02-15T11:56:24.556Z,7.53
2023-02-15T11:58:58.801Z,7.45
2023-02-15T12:01:33.378Z,8.30
2023-02-15T12:04:06.184Z,7.82
2023-02-15T12:06:39.676Z,7.45
2023-02-15T12:09:32.037Z,7.60
2023-02-15T12:12:24.905Z,7.93
2023-02-15T12:14:55.265Z,9.00
2023-02-15T12:20:30.002Z,7.78
2023-02-15T12:23:04.127Z,8.57
2023-02-15T12:25:38.734Z,8.35
2023-02-15T12:28:18.102Z,7.53
2023-02-15T12:30:45.927Z,8.63
2023-02-15T12:33:19.181Z,7.90
2023-02-15T12:35:50.246Z,7.47
2023-02-15T12:38:26.262Z,8.60
2023-02-15T12:41:03.455Z,7.75
2023-02-15T12:43:35.594Z,8.20
2023-02-15T12:46:23.250Z,8.05
2023-02-15T12:49:09.264Z,7.50
2023-02-15T12:51:48.669Z,7.53
2023-02-15T12:54:31.700Z,8.07
2023-02-15T12:57:01.606Z,7.80
2023-02-15T12:59:29.369Z,7.95
2023-02-15T13:01:57.598Z,7.97
2023-02-15T13:04:28.493Z,8.27
2023-02-15T13:07:01.596Z,7.70
2023-02-15T13:09:40.491Z,8.63
2023-02-15T13:12:19.494Z,7.20
2023-02-15T13:14:51.856Z,7.95
2023-02-15T13:17:26.071Z,8.77
2023-02-15T13:19:56.084Z,7.70
2023-02-15T13:22:30.408Z,7.70
2023-02-15T13:25:00.292Z,7.20
2023-02-15T13:27:38.128Z,7.25
2023-02-15T13:30:20.699Z,8.43
2023-02-15T13:32:53.451Z,8.48
2023-02-15T13:38:08.670Z,7.63
2023-02-15T13:40:43.064Z,7.70
2023-02-15T13:43:26.636Z,7.47
2023-02-15T13:46:16.541Z,7.55
2023-02-15T13:48:53.885Z,7.82
2023-02-15T13:51:26.919Z,8.50
2023-02-15T13:54:10.550Z,7.55
2023-02-15T13:56:57.191Z,9.10
2023-02-15T13:59:35.280Z,7.70
2023-02-15T14:02:27.834Z,7.45
2023-02-15T14:05:16.762Z,7.75
2023-02-15T14:07:58.250Z,7.68
2023-02-15T14:10:36.991Z,8.18
2023-02-15T14:13:36.784Z,7.75
2023-02-15T14:16:13.887Z,6.65
2023-02-15T14:18:48.456Z,7.68
2023-02-15T14:21:21.359Z,7.15
2023-02-15T14:24:10.587Z,7.13
2023-02-15T14:26:47.234Z,7.30
2023-02-15T14:29:27.801Z,7.68
2023-02-15T14:32:01.265Z,6.90
2023-02-15T14:34:36.155Z,6.80
2023-02-15T14:37:05.486Z,7.22
2023-02-15T14:40:01.411Z,6.72
2023-02-15T14:42:41.992Z,6.80
2023-02-15T14:45:21.307Z,7.50
2023-02-15T14:48:00.072Z,6.60
2023-02-15T14:50:45.395Z,7.15
2023-02-15T14:53:46.679Z,6.97
2023-02-15T14:56:21.572Z,7.90
2023-02-15T14:59:18.354Z,7.32
2023-02-15T15:01:59.704Z,6.93
2023-02-15T15:04:33.913Z,7.25
2023-02-15T15:07:16.201Z,6.50
2023-02-15T15:09:47.877Z,6.60
2023-02-15T15:12:38.645Z,7.00
2023-02-15T15:15:07.852Z,6.70
2023-02-15T15:17:57.161Z,7.15
2023-02-15T15:20:50.168Z,7.22
2023-02-15T15:23:50.110Z,7.25
2023-02-15T15:26:34.362Z,7.57
2023-02-15T15:29:03.712Z,7.65
2023-02-15T15:31:44.990Z,7.07
2023-02-15T15:34:48.750Z,7.75
2023-02-15T15:37:46.565Z,7.43
2023-02-15T15:40:47.714Z,8.18
2023-02-15T15:43:55.041Z,6.88
2023-02-15T15:46:48.806Z,6.97
2023-02-15T15:49:19.865Z,7.18
2023-02-15T15:51:48.635Z,7.15
2023-02-15T15:54:19.756Z,8.02
2023-02-15T15:56:52.152Z,8.70
2023-02-15T15:59:24.422Z,7.80
2023-02-15T16:01:52.798Z,7.93
2023-02-15T16:04:30.851Z,6.97
2023-02-15T16:06:59.894Z,7.22
2023-02-15T16:09:29.580Z,7.30
2023-02-15T16:12:01.330Z,7.95
2023-02-15T16:14:32.764Z,6.97
2023-02-15T16:17:03.461Z,9.27
2023-02-15T16:19:35.254Z,8.20
2023-02-15T16:22:04.658Z,8.13
2023-02-15T16:25:02.514Z,8.32
2023-02-15T16:27:42.830Z,8.77
2023-02-15T16:30:26.770Z,7.90
2023-02-15T16:32:56.261Z,7.88
2023-02-15T16:35:25.454Z,7.78
2023-02-15T16:37:53.290Z,9.05
2023-02-15T16:40:41.885Z,8.43
2023-02-15T16:43:18.790Z,8.88
2023-02-15T16:45:47.368Z,8.30
2023-02-15T16:48:21.017Z,8.98
2023-02-15T16:50:53.135Z,8.55
2023-02-15T16:53:24.443Z,8.75
2023-02-15T16:55:54.906Z,8.80
2023-02-15T16:58:33.642Z,8.57
2023-02-15T17:01:04.353Z,8.98
2023-02-15T17:03:32.597Z,8.18
2023-02-15T17:06:02.598Z,9.02
2023-02-15T17:08:33.411Z,7.43
2023-02-15T17:11:13.041Z,8.75
2023-02-15T17:14:16.338Z,9.55
2023-02-15T17:16:50.226Z,8.23
2023-02-15T17:19:21.394Z,8.32
2023-02-15T17:21:53.150Z,8.75
2023-02-15T17:24:26.654Z,9.43
2023-02-15T17:27:00.922Z,8.57
2023-02-15T17:29:36.685Z,8.15
2023-02-15T17:32:07.020Z,8.70
2023-02-15T17:35:09.127Z,8.48
2023-02-15T17:37:49.650Z,9.02
2023-02-15T17:40:23.164Z,9.23
2023-02-15T17:42:51.345Z,7.43
2023-02-15T17:45:21.021Z,8.40
2023-02-15T17:47:50.267Z,8.45
2023-02-15T17:50:22.664Z,9.10
2023-02-15T17:52:51.444Z,9.80
2023-02-15T17:55:39.155Z,8.23
2023-02-15T17:58:09.465Z,9.23
2023-02-15T18:00:59.087Z,10.15
2023-02-15T18:03:57.604Z,10.00
2023-02-15T18:06:42.972Z,9.20
2023-02-15T18:09:30.966Z,9.07
2023-02-15T18:11:59.446Z,8.82
2023-02-15T18:14:27.632Z,10.05
2023-02-15T18:16:57.436Z,11.07
2023-02-15T18:19:27.837Z,9.52
2023-02-15T18:21:57.662Z,10.15
2023-02-15T18:24:27.989Z,10.48
2023-02-15T18:26:55.861Z,11.48
2023-02-15T18:29:23.697Z,9.38
2023-02-15T18:31:56.411Z,8.88
2023-02-15T18:34:30.019Z,9.80
2023-02-15T18:36:58.832Z,11.55
2023-02-15T18:39:30.888Z,9.93
2023-02-15T18:41:59.015Z,9.88
2023-02-15T18:44:27.581Z,11.82
2023-02-15T18:46:55.413Z,11.27
2023-02-15T18:49:23.243Z,11.15
2023-02-15T18:51:53.839Z,11.10
2023-02-15T18:54:24.973Z,10.93
2023-02-15T18:56:56.542Z,10.60
2023-02-15T18:59:25.276Z,10.63
2023-02-15T19:01:54.041Z,10.32
2023-02-15T19:04:23.628Z,11.07
2023-02-15T19:06:55.693Z,9.73
2023-02-15T19:12:19.474Z,11.07
2023-02-15T19:14:47.648Z,11.30
2023-02-15T19:17:18.329Z,11.20
2023-02-15T19:19:47.000Z,11.73
2023-02-15T19:22:19.272Z,11.75
2023-02-15T19:24:48.055Z,11.90
2023-02-15T19:27:22.571Z,10.98
2023-02-15T19:29:51.281Z,10.43
2023-02-15T19:32:19.381Z,10.90
2023-02-15T19:34:47.293Z,11.05
2023-02-15T19:37:25.133Z,11.57
2023-02-15T19:39:53.749Z,10.77
2023-02-15T19:42:23.965Z,11.40
2023-02-15T19:44:51.845Z,12.02
2023-02-15T19:47:19.984Z,19.63
2023-02-15T19:52:42.677Z,14.57
2023-02-15T19:55:29.062Z,12.45
2023-02-15T19:57:58.491Z,11.70
2023-02-15T20:00:28.365Z,11.15
2023-02-15T20:02:57.924Z,12.75
2023-02-15T20:05:26.914Z,11.35
2023-02-15T20:07:56.781Z,12.13
2023-02-15T20:10:28.128Z,13.15
2023-02-15T20:12:56.469Z,13.90
2023-02-15T20:15:27.442Z,12.68
2023-02-15T20:17:56.122Z,11.82
2023-02-15T20:20:28.256Z,11.60
2023-02-15T20:22:57.592Z,11.90
2023-02-15T20:25:29.043Z,12.32
2023-02-15T20:27:59.263Z,11.52
2023-02-15T20:30:29.474Z,13.18
2023-02-15T20:32:57.372Z,12.80
2023-02-15T20:35:28.769Z,18.00
2023-02-15T20:38:00.704Z,13.82
2023-02-15T20:40:32.279Z,12.98
2023-02-15T20:43:00.673Z,12.15
2023-02-15T20:45:30.815Z,12.85
2023-02-15T20:47:59.300Z,12.23
2023-02-15T20:50:29.623Z,11.27
2023-02-15T20:53:02.740Z,11.60
2023-02-15T20:55:32.461Z,12.27
2023-02-15T20:58:00.752Z,11.48
2023-02-15T21:00:30.637Z,12.80
2023-02-15T21:03:00.365Z,13.43
2023-02-15T21:05:31.255Z,13.13
2023-02-15T21:08:01.013Z,11.55
2023-02-15T21:10:31.306Z,12.00
2023-02-15T21:13:01.371Z,13.63
2023-02-15T21:15:32.486Z,12.05
2023-02-15T21:18:01.879Z,12.43
2023-02-15T21:20:32.152Z,13.30
2023-02-15T21:23:05.061Z,12.20
2023-02-15T21:25:36.210Z,13.90
2023-02-15T21:28:05.168Z,12.60
2023-02-15T21:30:33.097Z,12.25
2023-02-15T21:33:01.104Z,13.65
2023-02-15T21:35:29.845Z,13.13
2023-02-15T21:37:57.697Z,12.57
2023-02-15T21:40:29.898Z,12.23
2023-02-15T21:43:15.612Z,12.30
2023-02-15T21:46:01.389Z,13.30
2023-02-15T21:48:29.321Z,12.85
2023-02-15T21:51:14.565Z,13.07
2023-02-15T21:53:45.982Z,12.52
2023-02-15T21:56:17.685Z,12.63
2023-02-15T21:58:45.826Z,11.63
2023-02-15T22:01:22.541Z,12.10
2023-02-15T22:03:51.179Z,13.02
2023-02-15T22:06:19.404Z,12.73
2023-02-15T22:08:47.951Z,12.93
2023-02-15T22:11:20.799Z,13.23
2023-02-15T22:13:49.832Z,12.43
2023-02-15T22:16:21.334Z,12.80
2023-02-15T22:18:49.566Z,12.18
2023-02-15T22:21:18.148Z,13.30
2023-02-15T22:23:47.022Z,12.77
2023-02-15T22:26:22.161Z,13.18
2023-02-15T22:28:50.500Z,14.32
2023-02-15T22:31:21.785Z,13.07
2023-02-15T22:33:51.221Z,11.95
2023-02-15T22:36:25.564Z,13.60
2023-02-15T22:38:54.415Z,15.10
2023-02-15T22:41:26.425Z,15.70
2023-02-15T22:43:54.388Z,15.23
2023-02-15T22:46:48.077Z,14.45
2023-02-15T22:49:16.942Z,17.45
2023-02-15T22:51:48.142Z,15.23
2023-02-15T22:54:16.531Z,13.95
2023-02-15T22:56:47.854Z,12.65
2023-02-15T22:59:21.347Z,12.32
2023-02-15T23:01:50.069Z,11.27
2023-02-15T23:06:36.405Z,12.57
2023-02-15T23:09:04.780Z,12.65
2023-02-15T23:11:32.761Z,12.75
2023-02-15T23:14:02.972Z,12.75
2023-02-15T23:16:31.584Z,11.60
2023-02-15T23:18:59.675Z,12.18
2023-02-15T23:21:30.370Z,13.43
2023-02-15T23:24:11.211Z,13.73
2023-02-15T23:26:39.266Z,11.77
2023-02-15T23:29:07.396Z,12.98
2023-02-15T23:31:44.585Z,13.75
2023-02-15T23:34:16.369Z,13.50
2023-02-15T23:36:44.519Z,13.67
2023-02-15T23:39:34.489Z,13.43
2023-02-15T23:42:05.680Z,13.18
2023-02-15T23:44:33.975Z,13.18
2023-02-15T23:47:01.757Z,12.90
2023-02-15T23:49:29.652Z,10.85
2023-02-15T23:51:58.681Z,13.02
2023-02-15T23:54:28.012Z,13.05
2023-02-15T23:57:00.464Z,12.43
2023-02-15T23:59:31.266Z,12.32
